sensor_id;sensor_type;location;lat;lon;timestamp;pressure;altitude;pressure_sealevel;temperature;humidity
36248;BME280;22287;50.824;5.644;2023-03-03T00:00:48;101451.31;;;3.10;70.12
36248;BME280;22287;50.824;5.644;2023-03-03T00:03:18;101442.31;;;3.33;69.68
36248;BME280;22287;50.824;5.644;2023-03-03T00:05:45;101433.31;;;3.74;68.68
36248;BME280;22287;50.824;5.644;2023-03-03T00:08:12;101439.94;;;3.66;68.47
36248;BME280;22287;50.824;5.644;2023-03-03T00:10:39;101442.50;;;3.87;67.50
36248;BME280;22287;50.824;5.644;2023-03-03T00:13:26;101446.59;;;3.76;67.96
36248;BME280;22287;50.824;5.644;2023-03-03T00:16:10;101453.94;;;3.71;67.81
36248;BME280;22287;50.824;5.644;2023-03-03T00:18:42;101460.13;;;3.52;68.50
36248;BME280;22287;50.824;5.644;2023-03-03T00:21:31;101452.72;;;3.39;69.07
36248;BME280;22287;50.824;5.644;2023-03-03T00:26:35;101461.16;;;3.50;68.52
36248;BME280;22287;50.824;5.644;2023-03-03T00:29:36;101464.81;;;3.47;68.46
36248;BME280;22287;50.824;5.644;2023-03-03T00:34:49;101473.94;;;4.01;66.86
36248;BME280;22287;50.824;5.644;2023-03-03T00:37:33;101460.53;;;4.02;66.39
36248;BME280;22287;50.824;5.644;2023-03-03T00:40:24;101461.84;;;3.53;67.54
36248;BME280;22287;50.824;5.644;2023-03-03T00:42:57;101466.84;;;3.42;69.23
36248;BME280;22287;50.824;5.644;2023-03-03T00:47:57;101462.66;;;3.15;69.43
36248;BME280;22287;50.824;5.644;2023-03-03T00:50:33;101467.50;;;3.47;68.40
36248;BME280;22287;50.824;5.644;2023-03-03T00:53:01;101467.53;;;3.66;67.63
36248;BME280;22287;50.824;5.644;2023-03-03T00:55:29;101472.72;;;3.50;67.97
36248;BME280;22287;50.824;5.644;2023-03-03T00:57:56;101465.00;;;3.63;67.98
36248;BME280;22287;50.824;5.644;2023-03-03T01:00:29;101463.09;;;3.85;67.22
36248;BME280;22287;50.824;5.644;2023-03-03T01:03:04;101462.53;;;3.38;68.40
36248;BME280;22287;50.824;5.644;2023-03-03T01:05:32;101465.00;;;3.43;69.04
36248;BME280;22287;50.824;5.644;2023-03-03T01:08:00;101463.34;;;3.61;67.81
36248;BME280;22287;50.824;5.644;2023-03-03T01:10:29;101473.19;;;3.79;66.94
36248;BME280;22287;50.824;5.644;2023-03-03T01:12:58;101467.00;;;3.78;67.27
36248;BME280;22287;50.824;5.644;2023-03-03T01:15:25;101470.72;;;3.74;67.20
36248;BME280;22287;50.824;5.644;2023-03-03T01:17:53;101477.00;;;3.13;68.60
36248;BME280;22287;50.824;5.644;2023-03-03T01:20:20;101474.84;;;3.42;68.40
36248;BME280;22287;50.824;5.644;2023-03-03T01:22:48;101470.81;;;3.73;67.08
36248;BME280;22287;50.824;5.644;2023-03-03T01:25:15;101470.72;;;3.74;66.39
36248;BME280;22287;50.824;5.644;2023-03-03T01:27:41;101482.94;;;3.80;66.28
36248;BME280;22287;50.824;5.644;2023-03-03T01:30:09;101487.97;;;3.27;68.05
36248;BME280;22287;50.824;5.644;2023-03-03T01:32:36;101477.22;;;3.08;69.08
36248;BME280;22287;50.824;5.644;2023-03-03T01:35:03;101483.72;;;3.23;68.52
36248;BME280;22287;50.824;5.644;2023-03-03T01:37:29;101480.13;;;3.02;69.65
36248;BME280;22287;50.824;5.644;2023-03-03T01:39:56;101482.16;;;2.54;71.43
36248;BME280;22287;50.824;5.644;2023-03-03T01:42:23;101486.03;;;3.10;70.31
36248;BME280;22287;50.824;5.644;2023-03-03T01:47:50;101484.44;;;3.26;69.52
36248;BME280;22287;50.824;5.644;2023-03-03T01:53:44;101487.66;;;2.49;72.64
36248;BME280;22287;50.824;5.644;2023-03-03T01:56:13;101493.63;;;2.11;74.63
36248;BME280;22287;50.824;5.644;2023-03-03T01:58:46;101490.25;;;2.06;75.26
36248;BME280;22287;50.824;5.644;2023-03-03T02:01:19;101488.38;;;2.76;73.25
36248;BME280;22287;50.824;5.644;2023-03-03T02:03:48;101499.59;;;2.17;74.58
36248;BME280;22287;50.824;5.644;2023-03-03T02:06:17;101504.16;;;2.14;75.16
36248;BME280;22287;50.824;5.644;2023-03-03T02:08:52;101506.66;;;2.18;75.01
36248;BME280;22287;50.824;5.644;2023-03-03T02:11:21;101496.84;;;2.19;75.96
36248;BME280;22287;50.824;5.644;2023-03-03T02:13:48;101495.16;;;2.40;75.00
36248;BME280;22287;50.824;5.644;2023-03-03T02:16:15;101500.28;;;2.46;74.50
36248;BME280;22287;50.824;5.644;2023-03-03T02:18:42;101491.22;;;2.71;73.85
36248;BME280;22287;50.824;5.644;2023-03-03T02:21:11;101491.09;;;2.53;73.81
36248;BME280;22287;50.824;5.644;2023-03-03T02:28:54;101485.31;;;2.42;74.18
36248;BME280;22287;50.824;5.644;2023-03-03T02:31:24;101496.34;;;2.09;75.66
36248;BME280;22287;50.824;5.644;2023-03-03T02:33:53;101494.69;;;2.07;75.92
36248;BME280;22287;50.824;5.644;2023-03-03T02:36:21;101501.31;;;2.18;75.99
36248;BME280;22287;50.824;5.644;2023-03-03T02:39:13;101503.28;;;2.13;75.67
36248;BME280;22287;50.824;5.644;2023-03-03T02:44:35;101499.94;;;2.08;75.75
36248;BME280;22287;50.824;5.644;2023-03-03T02:47:02;101500.03;;;2.05;76.04
36248;BME280;22287;50.824;5.644;2023-03-03T02:49:32;101506.06;;;2.10;76.03
36248;BME280;22287;50.824;5.644;2023-03-03T02:52:00;101507.56;;;1.94;76.25
36248;BME280;22287;50.824;5.644;2023-03-03T02:54:29;101507.28;;;2.02;75.89
36248;BME280;22287;50.824;5.644;2023-03-03T02:57:02;101507.72;;;2.14;75.14
36248;BME280;22287;50.824;5.644;2023-03-03T02:59:29;101512.13;;;2.15;75.20
36248;BME280;22287;50.824;5.644;2023-03-03T03:02:03;101516.41;;;2.19;74.88
36248;BME280;22287;50.824;5.644;2023-03-03T03:04:30;101516.03;;;2.05;75.41
36248;BME280;22287;50.824;5.644;2023-03-03T03:06:57;101507.22;;;1.80;76.80
36248;BME280;22287;50.824;5.644;2023-03-03T03:09:26;101507.81;;;1.63;76.42
36248;BME280;22287;50.824;5.644;2023-03-03T03:11:54;101511.84;;;1.50;77.59
36248;BME280;22287;50.824;5.644;2023-03-03T03:14:24;101507.44;;;1.74;77.46
36248;BME280;22287;50.824;5.644;2023-03-03T03:16:52;101496.41;;;1.85;75.90
36248;BME280;22287;50.824;5.644;2023-03-03T03:19:19;101502.84;;;2.25;75.30
36248;BME280;22287;50.824;5.644;2023-03-03T03:21:46;101504.66;;;2.47;73.92
36248;BME280;22287;50.824;5.644;2023-03-03T03:24:13;101506.06;;;1.87;76.11
36248;BME280;22287;50.824;5.644;2023-03-03T03:26:45;101511.50;;;2.07;75.13
36248;BME280;22287;50.824;5.644;2023-03-03T03:29:13;101518.94;;;1.76;77.23
36248;BME280;22287;50.824;5.644;2023-03-03T03:31:39;101528.50;;;1.57;77.04
36248;BME280;22287;50.824;5.644;2023-03-03T03:34:09;101516.97;;;1.81;76.47
36248;BME280;22287;50.824;5.644;2023-03-03T03:36:36;101536.38;;;2.08;75.77
36248;BME280;22287;50.824;5.644;2023-03-03T03:39:06;101524.88;;;1.83;76.10
36248;BME280;22287;50.824;5.644;2023-03-03T03:41:35;101521.53;;;1.53;77.65
36248;BME280;22287;50.824;5.644;2023-03-03T03:44:03;101523.09;;;2.29;75.34
36248;BME280;22287;50.824;5.644;2023-03-03T03:46:30;101525.19;;;2.45;74.24
36248;BME280;22287;50.824;5.644;2023-03-03T03:48:57;101528.41;;;1.83;75.41
36248;BME280;22287;50.824;5.644;2023-03-03T03:51:24;101534.06;;;1.74;76.22
36248;BME280;22287;50.824;5.644;2023-03-03T03:53:51;101533.97;;;1.77;76.22
36248;BME280;22287;50.824;5.644;2023-03-03T03:56:18;101532.84;;;1.84;76.28
36248;BME280;22287;50.824;5.644;2023-03-03T03:58:48;101545.22;;;1.60;77.38
36248;BME280;22287;50.824;5.644;2023-03-03T04:01:15;101541.13;;;1.76;76.49
36248;BME280;22287;50.824;5.644;2023-03-03T04:03:46;101532.44;;;1.95;76.12
36248;BME280;22287;50.824;5.644;2023-03-03T04:06:17;101535.44;;;1.86;75.82
36248;BME280;22287;50.824;5.644;2023-03-03T04:08:45;101542.84;;;1.53;76.55
36248;BME280;22287;50.824;5.644;2023-03-03T04:11:13;101535.63;;;1.56;77.79
36248;BME280;22287;50.824;5.644;2023-03-03T04:13:40;101544.97;;;1.43;77.44
36248;BME280;22287;50.824;5.644;2023-03-03T04:16:08;101548.84;;;1.84;76.68
36248;BME280;22287;50.824;5.644;2023-03-03T04:18:35;101543.81;;;1.75;77.29
36248;BME280;22287;50.824;5.644;2023-03-03T04:23:49;101548.38;;;1.47;77.23
36248;BME280;22287;50.824;5.644;2023-03-03T04:26:16;101544.97;;;1.68;76.94
36248;BME280;22287;50.824;5.644;2023-03-03T04:28:43;101545.66;;;1.98;75.14
36248;BME280;22287;50.824;5.644;2023-03-03T04:31:11;101548.59;;;2.15;75.39
36248;BME280;22287;50.824;5.644;2023-03-03T04:33:38;101545.00;;;1.91;76.20
36248;BME280;22287;50.824;5.644;2023-03-03T04:36:06;101553.75;;;1.95;76.23
36248;BME280;22287;50.824;5.644;2023-03-03T04:38:33;101551.50;;;2.07;75.68
36248;BME280;22287;50.824;5.644;2023-03-03T04:41:00;101557.19;;;1.98;75.64
36248;BME280;22287;50.824;5.644;2023-03-03T04:43:31;101552.06;;;2.17;74.55
36248;BME280;22287;50.824;5.644;2023-03-03T04:45:59;101554.91;;;2.12;74.89
36248;BME280;22287;50.824;5.644;2023-03-03T04:48:26;101554.66;;;2.42;73.60
36248;BME280;22287;50.824;5.644;2023-03-03T04:50:53;101552.94;;;2.17;74.79
36248;BME280;22287;50.824;5.644;2023-03-03T04:53:20;101554.19;;;2.30;73.43
36248;BME280;22287;50.824;5.644;2023-03-03T04:55:49;101550.34;;;1.91;74.89
36248;BME280;22287;50.824;5.644;2023-03-03T04:58:17;101565.44;;;1.41;76.81
36248;BME280;22287;50.824;5.644;2023-03-03T05:00:46;101563.81;;;1.37;77.32
36248;BME280;22287;50.824;5.644;2023-03-03T05:03:13;101562.94;;;1.63;76.56
36248;BME280;22287;50.824;5.644;2023-03-03T05:05:41;101574.69;;;1.82;75.65
36248;BME280;22287;50.824;5.644;2023-03-03T05:08:07;101567.50;;;1.58;76.44
36248;BME280;22287;50.824;5.644;2023-03-03T05:10:34;101577.84;;;1.67;76.62
36248;BME280;22287;50.824;5.644;2023-03-03T05:13:01;101577.38;;;1.81;76.04
36248;BME280;22287;50.824;5.644;2023-03-03T05:15:28;101569.25;;;2.08;74.88
36248;BME280;22287;50.824;5.644;2023-03-03T05:17:55;101574.25;;;2.17;74.94
36248;BME280;22287;50.824;5.644;2023-03-03T05:20:23;101573.88;;;2.03;74.95
36248;BME280;22287;50.824;5.644;2023-03-03T05:22:50;101580.91;;;1.81;75.54
36248;BME280;22287;50.824;5.644;2023-03-03T05:25:17;101573.84;;;2.28;74.36
36248;BME280;22287;50.824;5.644;2023-03-03T05:27:43;101572.63;;;2.13;74.25
36248;BME280;22287;50.824;5.644;2023-03-03T05:30:11;101576.28;;;1.61;76.49
36248;BME280;22287;50.824;5.644;2023-03-03T05:32:38;101571.66;;;1.91;75.55
36248;BME280;22287;50.824;5.644;2023-03-03T05:35:05;101576.88;;;2.42;73.82
36248;BME280;22287;50.824;5.644;2023-03-03T05:37:32;101573.66;;;2.32;73.66
36248;BME280;22287;50.824;5.644;2023-03-03T05:39:58;101585.97;;;2.60;73.14
36248;BME280;22287;50.824;5.644;2023-03-03T05:42:25;101586.13;;;1.59;76.06
36248;BME280;22287;50.824;5.644;2023-03-03T05:44:52;101590.19;;;1.45;77.02
36248;BME280;22287;50.824;5.644;2023-03-03T05:47:19;101585.47;;;1.53;77.80
36248;BME280;22287;50.824;5.644;2023-03-03T05:49:46;101585.56;;;1.50;77.44
36248;BME280;22287;50.824;5.644;2023-03-03T05:52:13;101581.06;;;1.52;76.66
36248;BME280;22287;50.824;5.644;2023-03-03T05:54:40;101580.22;;;1.50;77.23
36248;BME280;22287;50.824;5.644;2023-03-03T05:57:06;101589.47;;;1.40;77.35
36248;BME280;22287;50.824;5.644;2023-03-03T05:59:33;101594.00;;;1.36;77.76
36248;BME280;22287;50.824;5.644;2023-03-03T06:02:00;101598.00;;;1.75;75.42
36248;BME280;22287;50.824;5.644;2023-03-03T06:04:26;101598.19;;;1.69;76.21
36248;BME280;22287;50.824;5.644;2023-03-03T06:06:53;101608.88;;;1.94;75.27
36248;BME280;22287;50.824;5.644;2023-03-03T06:09:20;101589.28;;;2.20;74.65
36248;BME280;22287;50.824;5.644;2023-03-03T06:11:47;101590.88;;;2.24;73.82
36248;BME280;22287;50.824;5.644;2023-03-03T06:14:14;101591.25;;;2.15;73.52
36248;BME280;22287;50.824;5.644;2023-03-03T06:16:40;101593.22;;;2.10;73.89
36248;BME280;22287;50.824;5.644;2023-03-03T06:19:07;101601.03;;;1.65;75.36
36248;BME280;22287;50.824;5.644;2023-03-03T06:21:35;101604.59;;;1.64;75.68
36248;BME280;22287;50.824;5.644;2023-03-03T06:24:01;101601.03;;;1.90;74.85
36248;BME280;22287;50.824;5.644;2023-03-03T06:26:30;101605.66;;;2.09;74.23
36248;BME280;22287;50.824;5.644;2023-03-03T06:28:57;101611.84;;;1.85;74.27
36248;BME280;22287;50.824;5.644;2023-03-03T06:31:33;101611.91;;;1.59;75.51
36248;BME280;22287;50.824;5.644;2023-03-03T06:34:00;101615.84;;;1.98;74.99
36248;BME280;22287;50.824;5.644;2023-03-03T06:36:27;101612.44;;;2.43;73.24
36248;BME280;22287;50.824;5.644;2023-03-03T06:38:53;101616.47;;;2.29;73.75
36248;BME280;22287;50.824;5.644;2023-03-03T06:41:21;101613.00;;;2.03;72.99
36248;BME280;22287;50.824;5.644;2023-03-03T06:43:47;101617.91;;;1.90;74.48
36248;BME280;22287;50.824;5.644;2023-03-03T06:46:14;101620.59;;;1.64;75.94
36248;BME280;22287;50.824;5.644;2023-03-03T06:48:42;101627.72;;;1.88;74.78
36248;BME280;22287;50.824;5.644;2023-03-03T06:53:47;101626.00;;;1.87;74.55
36248;BME280;22287;50.824;5.644;2023-03-03T06:56:15;101636.88;;;1.55;74.29
36248;BME280;22287;50.824;5.644;2023-03-03T06:58:43;101639.25;;;1.90;74.73
36248;BME280;22287;50.824;5.644;2023-03-03T07:01:15;101635.59;;;1.66;75.30
36248;BME280;22287;50.824;5.644;2023-03-03T07:03:43;101641.81;;;1.67;75.17
36248;BME280;22287;50.824;5.644;2023-03-03T07:06:25;101645.00;;;2.03;73.75
36248;BME280;22287;50.824;5.644;2023-03-03T07:08:54;101641.06;;;1.88;74.32
36248;BME280;22287;50.824;5.644;2023-03-03T07:11:23;101646.72;;;1.79;74.84
36248;BME280;22287;50.824;5.644;2023-03-03T07:13:52;101642.41;;;1.75;75.22
36248;BME280;22287;50.824;5.644;2023-03-03T07:16:34;101650.66;;;2.18;74.12
36248;BME280;22287;50.824;5.644;2023-03-03T07:19:01;101655.34;;;2.12;74.49
36248;BME280;22287;50.824;5.644;2023-03-03T07:21:36;101669.50;;;1.63;75.38
36248;BME280;22287;50.824;5.644;2023-03-03T07:24:29;101664.81;;;1.96;75.14
36248;BME280;22287;50.824;5.644;2023-03-03T07:29:48;101667.47;;;2.68;71.88
36248;BME280;22287;50.824;5.644;2023-03-03T07:32:34;101670.47;;;2.11;73.35
36248;BME280;22287;50.824;5.644;2023-03-03T07:35:20;101680.69;;;1.99;73.90
36248;BME280;22287;50.824;5.644;2023-03-03T07:37:50;101686.47;;;2.36;73.64
36248;BME280;22287;50.824;5.644;2023-03-03T07:42:59;101694.06;;;1.97;74.19
36248;BME280;22287;50.824;5.644;2023-03-03T07:45:36;101702.41;;;2.37;73.68
36248;BME280;22287;50.824;5.644;2023-03-03T07:48:08;101706.16;;;2.07;73.64
36248;BME280;22287;50.824;5.644;2023-03-03T07:50:41;101705.41;;;1.51;76.60
36248;BME280;22287;50.824;5.644;2023-03-03T07:53:21;101715.78;;;1.85;75.44
36248;BME280;22287;50.824;5.644;2023-03-03T07:55:50;101720.03;;;1.91;75.48
36248;BME280;22287;50.824;5.644;2023-03-03T07:58:25;101722.34;;;1.49;77.02
36248;BME280;22287;50.824;5.644;2023-03-03T08:03:57;101725.94;;;2.26;73.68
36248;BME280;22287;50.824;5.644;2023-03-03T08:11:57;101717.81;;;2.79;71.99
36248;BME280;22287;50.824;5.644;2023-03-03T08:14:32;101722.81;;;2.14;72.65
36248;BME280;22287;50.824;5.644;2023-03-03T08:17:00;101726.28;;;2.42;72.59
36248;BME280;22287;50.824;5.644;2023-03-03T08:19:29;101732.50;;;2.66;72.27
36248;BME280;22287;50.824;5.644;2023-03-03T08:22:08;101730.78;;;2.15;74.24
36248;BME280;22287;50.824;5.644;2023-03-03T08:24:36;101735.03;;;1.95;74.42
36248;BME280;22287;50.824;5.644;2023-03-03T08:27:04;101741.53;;;2.12;74.01
36248;BME280;22287;50.824;5.644;2023-03-03T08:29:30;101736.56;;;2.02;73.86
36248;BME280;22287;50.824;5.644;2023-03-03T08:31:57;101747.75;;;2.37;72.86
36248;BME280;22287;50.824;5.644;2023-03-03T08:34:24;101738.50;;;2.23;72.32
36248;BME280;22287;50.824;5.644;2023-03-03T08:36:51;101742.19;;;2.44;72.68
36248;BME280;22287;50.824;5.644;2023-03-03T08:39:18;101745.63;;;1.96;73.90
36248;BME280;22287;50.824;5.644;2023-03-03T08:41:45;101749.56;;;1.58;75.84
36248;BME280;22287;50.824;5.644;2023-03-03T08:44:13;101749.59;;;1.85;74.57
36248;BME280;22287;50.824;5.644;2023-03-03T08:46:40;101742.41;;;1.87;74.72
36248;BME280;22287;50.824;5.644;2023-03-03T08:49:07;101754.38;;;2.01;74.03
36248;BME280;22287;50.824;5.644;2023-03-03T08:51:34;101752.63;;;2.00;73.75
36248;BME280;22287;50.824;5.644;2023-03-03T08:54:18;101753.44;;;1.76;74.79
36248;BME280;22287;50.824;5.644;2023-03-03T08:56:45;101755.59;;;1.63;75.05
36248;BME280;22287;50.824;5.644;2023-03-03T08:59:11;101752.50;;;1.77;74.61
36248;BME280;22287;50.824;5.644;2023-03-03T09:01:39;101762.19;;;2.06;73.99
36248;BME280;22287;50.824;5.644;2023-03-03T09:04:06;101758.38;;;2.64;71.87
36248;BME280;22287;50.824;5.644;2023-03-03T09:06:32;101761.06;;;2.13;73.42
36248;BME280;22287;50.824;5.644;2023-03-03T09:08:59;101760.88;;;2.44;72.49
36248;BME280;22287;50.824;5.644;2023-03-03T09:11:28;101771.75;;;2.37;73.48
36248;BME280;22287;50.824;5.644;2023-03-03T09:14:06;101770.25;;;2.55;72.09
36248;BME280;22287;50.824;5.644;2023-03-03T09:16:40;101775.47;;;2.33;74.00
36248;BME280;22287;50.824;5.644;2023-03-03T09:19:22;101777.97;;;2.63;72.34
36248;BME280;22287;50.824;5.644;2023-03-03T09:21:53;101778.56;;;2.46;72.11
36248;BME280;22287;50.824;5.644;2023-03-03T09:24:26;101786.13;;;2.33;72.92
36248;BME280;22287;50.824;5.644;2023-03-03T09:26:55;101787.06;;;2.32;73.68
36248;BME280;22287;50.824;5.644;2023-03-03T09:29:26;101783.94;;;2.20;73.57
36248;BME280;22287;50.824;5.644;2023-03-03T09:35:34;101783.69;;;2.01;74.96
36248;BME280;22287;50.824;5.644;2023-03-03T09:38:16;101786.19;;;2.32;74.23
36248;BME280;22287;50.824;5.644;2023-03-03T09:43:35;101790.66;;;2.05;74.04
36248;BME280;22287;50.824;5.644;2023-03-03T09:48:43;101787.91;;;2.34;73.53
36248;BME280;22287;50.824;5.644;2023-03-03T09:57:13;101786.03;;;2.10;73.67
36248;BME280;22287;50.824;5.644;2023-03-03T10:07:45;101803.16;;;2.56;72.32
36248;BME280;22287;50.824;5.644;2023-03-03T10:10:28;101800.66;;;2.76;71.66
36248;BME280;22287;50.824;5.644;2023-03-03T10:13:30;101797.53;;;2.88;70.62
36248;BME280;22287;50.824;5.644;2023-03-03T10:22:22;101808.69;;;2.99;69.92
36248;BME280;22287;50.824;5.644;2023-03-03T10:28:04;101796.66;;;2.63;71.35
36248;BME280;22287;50.824;5.644;2023-03-03T10:30:51;101806.34;;;2.90;69.68
36248;BME280;22287;50.824;5.644;2023-03-03T10:50:13;101801.25;;;2.59;72.61
36248;BME280;22287;50.824;5.644;2023-03-03T10:55:34;101811.84;;;2.87;69.51
36248;BME280;22287;50.824;5.644;2023-03-03T11:09:02;101816.38;;;3.08;69.06
36248;BME280;22287;50.824;5.644;2023-03-03T11:14:28;101810.91;;;3.81;67.87
36248;BME280;22287;50.824;5.644;2023-03-03T11:17:07;101814.09;;;3.21;68.57
36248;BME280;22287;50.824;5.644;2023-03-03T11:19:58;101808.31;;;3.33;68.79
36248;BME280;22287;50.824;5.644;2023-03-03T11:25:26;101812.31;;;2.98;69.83
36248;BME280;22287;50.824;5.644;2023-03-03T11:33:25;101804.00;;;3.29;68.50
36248;BME280;22287;50.824;5.644;2023-03-03T11:36:17;101797.63;;;3.56;68.02
36248;BME280;22287;50.824;5.644;2023-03-03T11:44:27;101804.88;;;3.29;67.69
36248;BME280;22287;50.824;5.644;2023-03-03T11:49:30;101798.25;;;4.06;66.54
36248;BME280;22287;50.824;5.644;2023-03-03T12:44:11;101778.97;;;4.40;65.45
36248;BME280;22287;50.824;5.644;2023-03-03T12:47:02;101775.78;;;4.52;64.96
36248;BME280;22287;50.824;5.644;2023-03-03T12:55:36;101770.41;;;3.68;66.78
36248;BME280;22287;50.824;5.644;2023-03-03T12:58:10;101771.50;;;4.06;65.29
36248;BME280;22287;50.824;5.644;2023-03-03T13:00:59;101766.97;;;3.65;67.15
36248;BME280;22287;50.824;5.644;2023-03-03T13:03:48;101756.59;;;3.79;66.01
36248;BME280;22287;50.824;5.644;2023-03-03T13:06:27;101764.22;;;4.09;65.79
36248;BME280;22287;50.824;5.644;2023-03-03T13:15:09;101753.63;;;4.48;65.19
36248;BME280;22287;50.824;5.644;2023-03-03T13:18:09;101734.94;;;5.62;61.11
36248;BME280;22287;50.824;5.644;2023-03-03T13:23:56;101743.78;;;5.64;61.63
36248;BME280;22287;50.824;5.644;2023-03-03T13:26:40;101745.59;;;5.45;61.17
36248;BME280;22287;50.824;5.644;2023-03-03T13:29:32;101743.38;;;5.54;61.75
36248;BME280;22287;50.824;5.644;2023-03-03T13:32:23;101745.69;;;5.43;61.70
36248;BME280;22287;50.824;5.644;2023-03-03T13:37:22;101746.50;;;5.26;62.37
36248;BME280;22287;50.824;5.644;2023-03-03T13:39:57;101746.41;;;5.28;62.00
36248;BME280;22287;50.824;5.644;2023-03-03T13:43:07;101753.38;;;5.13;62.98
36248;BME280;22287;50.824;5.644;2023-03-03T13:48:39;101746.47;;;5.08;62.26
36248;BME280;22287;50.824;5.644;2023-03-03T13:59:23;101748.28;;;5.07;63.66
36248;BME280;22287;50.824;5.644;2023-03-03T14:04:31;101752.75;;;4.48;64.26
36248;BME280;22287;50.824;5.644;2023-03-03T14:07:13;101741.53;;;4.99;62.99
36248;BME280;22287;50.824;5.644;2023-03-03T14:13:02;101738.84;;;4.60;65.28
36248;BME280;22287;50.824;5.644;2023-03-03T14:15:33;101741.97;;;4.69;64.33
36248;BME280;22287;50.824;5.644;2023-03-03T14:18:23;101739.50;;;4.45;64.62
36248;BME280;22287;50.824;5.644;2023-03-03T14:20:51;101740.25;;;4.68;64.47
36248;BME280;22287;50.824;5.644;2023-03-03T14:23:23;101729.13;;;4.37;64.00
36248;BME280;22287;50.824;5.644;2023-03-03T14:28:22;101735.56;;;4.33;64.40
36248;BME280;22287;50.824;5.644;2023-03-03T14:30:52;101738.16;;;4.14;64.64
36248;BME280;22287;50.824;5.644;2023-03-03T14:33:22;101728.06;;;4.61;64.60
36248;BME280;22287;50.824;5.644;2023-03-03T14:43:38;101731.03;;;4.35;64.52
36248;BME280;22287;50.824;5.644;2023-03-03T14:48:57;101729.22;;;4.95;63.70
36248;BME280;22287;50.824;5.644;2023-03-03T14:51:42;101729.03;;;4.99;63.41
36248;BME280;22287;50.824;5.644;2023-03-03T14:54:24;101734.88;;;4.28;64.81
36248;BME280;22287;50.824;5.644;2023-03-03T14:57:06;101735.56;;;4.33;64.47
36248;BME280;22287;50.824;5.644;2023-03-03T14:59:36;101730.19;;;4.13;65.09
36248;BME280;22287;50.824;5.644;2023-03-03T15:04:43;101727.75;;;4.49;64.91
36248;BME280;22287;50.824;5.644;2023-03-03T15:07:34;101721.28;;;5.12;62.99
36248;BME280;22287;50.824;5.644;2023-03-03T15:10:03;101712.81;;;5.21;61.89
36248;BME280;22287;50.824;5.644;2023-03-03T15:12:37;101706.09;;;4.73;63.99
36248;BME280;22287;50.824;5.644;2023-03-03T15:17:39;101703.94;;;4.82;63.41
36248;BME280;22287;50.824;5.644;2023-03-03T15:26:14;101705.13;;;5.32;62.36
36248;BME280;22287;50.824;5.644;2023-03-03T15:31:38;101689.69;;;5.37;61.74
36248;BME280;22287;50.824;5.644;2023-03-03T15:37:11;101694.34;;;5.88;60.12
36248;BME280;22287;50.824;5.644;2023-03-03T15:50:25;101689.78;;;5.71;60.98
36248;BME280;22287;50.824;5.644;2023-03-03T15:55:54;101684.88;;;5.98;60.83
36248;BME280;22287;50.824;5.644;2023-03-03T16:04:25;101692.69;;;5.67;60.99
36248;BME280;22287;50.824;5.644;2023-03-03T16:07:08;101691.63;;;5.33;61.73
36248;BME280;22287;50.824;5.644;2023-03-03T16:09:50;101689.09;;;5.30;62.07
36248;BME280;22287;50.824;5.644;2023-03-03T16:12:44;101691.94;;;5.09;62.77
36248;BME280;22287;50.824;5.644;2023-03-03T16:21:20;101691.59;;;6.07;59.46
36248;BME280;22287;50.824;5.644;2023-03-03T16:24:31;101693.25;;;6.09;58.77
36248;BME280;22287;50.824;5.644;2023-03-03T16:27:09;101699.88;;;6.19;58.88
36248;BME280;22287;50.824;5.644;2023-03-03T16:30:05;101696.19;;;6.05;58.47
36248;BME280;22287;50.824;5.644;2023-03-03T16:32:48;101696.22;;;5.86;59.62
36248;BME280;22287;50.824;5.644;2023-03-03T16:35:24;101700.84;;;5.82;59.60
36248;BME280;22287;50.824;5.644;2023-03-03T16:38:05;101698.28;;;5.62;60.67
36248;BME280;22287;50.824;5.644;2023-03-03T16:40:48;101703.19;;;5.90;59.26
36248;BME280;22287;50.824;5.644;2023-03-03T16:54:04;101701.44;;;5.70;60.27
36248;BME280;22287;50.824;5.644;2023-03-03T16:56:36;101702.38;;;6.05;59.26
36248;BME280;22287;50.824;5.644;2023-03-03T17:02:20;101710.13;;;5.75;58.91
36248;BME280;22287;50.824;5.644;2023-03-03T17:10:26;101706.59;;;4.82;61.93
36248;BME280;22287;50.824;5.644;2023-03-03T17:30:21;101732.38;;;3.62;64.04
36248;BME280;22287;50.824;5.644;2023-03-03T17:35:43;101739.06;;;3.50;64.06
36248;BME280;22287;50.824;5.644;2023-03-03T17:46:46;101746.75;;;3.36;63.79
36248;BME280;22287;50.824;5.644;2023-03-03T17:55:22;101753.59;;;2.96;64.94
36248;BME280;22287;50.824;5.644;2023-03-03T18:06:25;101759.91;;;2.71;66.01
36248;BME280;22287;50.824;5.644;2023-03-03T18:14:20;101763.66;;;2.41;67.16
36248;BME280;22287;50.824;5.644;2023-03-03T18:20:06;101767.16;;;2.16;67.73
36248;BME280;22287;50.824;5.644;2023-03-03T18:27:45;101762.50;;;1.97;68.00
36248;BME280;22287;50.824;5.644;2023-03-03T18:38:25;101786.13;;;2.07;67.51
36248;BME280;22287;50.824;5.644;2023-03-03T18:41:09;101786.03;;;2.10;67.16
36248;BME280;22287;50.824;5.644;2023-03-03T19:04:52;101793.00;;;1.88;67.04
36248;BME280;22287;50.824;5.644;2023-03-03T19:07:27;101791.19;;;1.89;66.45
36248;BME280;22287;50.824;5.644;2023-03-03T19:10:03;101787.97;;;1.79;66.34
36248;BME280;22287;50.824;5.644;2023-03-03T19:12:46;101791.59;;;1.49;67.73
36248;BME280;22287;50.824;5.644;2023-03-03T19:18:14;101782.59;;;1.53;67.63
36248;BME280;22287;50.824;5.644;2023-03-03T19:20:55;101788.09;;;1.47;67.59
36248;BME280;22287;50.824;5.644;2023-03-03T19:29:24;101789.00;;;1.16;68.26
36248;BME280;22287;50.824;5.644;2023-03-03T19:32:11;101784.25;;;1.28;67.41
36248;BME280;22287;50.824;5.644;2023-03-03T19:40:27;101789.97;;;1.14;68.17
36248;BME280;22287;50.824;5.644;2023-03-03T19:45:44;101788.47;;;1.35;67.17
36248;BME280;22287;50.824;5.644;2023-03-03T19:56:43;101786.84;;;1.00;67.57
36248;BME280;22287;50.824;5.644;2023-03-03T19:59:24;101783.50;;;1.23;67.20
36248;BME280;22287;50.824;5.644;2023-03-03T20:02:10;101787.25;;;1.46;66.83
36248;BME280;22287;50.824;5.644;2023-03-03T20:08:11;101781.41;;;1.34;66.36